Navig8 Victoria — V7IT6 — position and weather

sailwx.info

Track history (hours):
 
Tides and Currents Weather Stations Pressure Air Temp Water Temp Dewpoint Dewpoint Depression Visibility Wind Speed Wind Dir Waves Ship Positions

Navig8 Victoria

Last reported at 2018-Jul-13 08:19 UTC. Time now 2018-Aug-15 03:01 UTC.
Position N 25°32' W 079°34'.
Warning: this ship's position is 32 days out of date.

Length 183 m; draft 8.7 m.

Type: Ship. MMSI: 538005992.

Date/timePositionNaut miles runAvg speedWind from/ knotsBaromVisibWave heightAir tempDewpointWater temp
2018-Jul-13 08:19N 25°32' W 079°34'411.5
2018-Jul-13 08:00N 25°36' W 079°33'611.5
2018-Jul-13 07:30N 25°42' W 079°32'611.7
2018-Jul-13 07:00N 25°47' W 079°31'611.8
2018-Jul-13 06:29N 25°53' W 079°30'611.7
2018-Jul-13 06:00N 25°59' W 079°30'611.9
2018-Jul-13 05:30N 26°05' W 079°29'612.0
2018-Jul-13 05:00N 26°11' W 079°27'611.9
2018-Jul-13 04:30N 26°16' W 079°25'611.7
2018-Jul-13 04:00N 26°22' W 079°24'  
2018-Jul-09 10:51N 39°03' W 072°31'614.2
2018-Jul-09 10:27N 39°08' W 072°34'2914.2
2018-Jul-09 08:25N 39°33' W 072°54'813.9
2018-Jul-09 07:50N 39°40' W 072°60'413.7
2018-Jul-09 07:30N 39°43' W 073°03'713.7
2018-Jul-09 06:59N 39°49' W 073°08'713.7
2018-Jul-09 06:30N 39°55' W 073°13'913.5
2018-Jul-09 05:51N 40°02' W 073°20'513.4
2018-Jul-09 05:27N 40°06' W 073°25'613.3
2018-Jul-09 05:00N 40°10' W 073°30'713.2
2018-Jul-09 04:30N 40°15' W 073°35'713.3
2018-Jul-09 04:00N 40°20' W 073°41'612.4
2018-Jul-09 03:30N 40°25' W 073°47'510.7
2018-Jul-09 03:00N 40°28' W 073°52'613.0
2018-Jul-09 02:30N 40°31' W 073°60'612.3
2018-Jul-09 02:00N 40°37' W 074°03'1 2.6
2018-Jul-09 01:29N 40°38' W 074°04'0 0.0
2018-Jul-09 00:59N 40°38' W 074°04'0 0.1
2018-Jul-09 00:29N 40°38' W 074°04'0 0.2
2018-Jul-08 23:59N 40°38' W 074°04'0 0.2
2018-Jul-08 23:29N 40°38' W 074°04'0 0.1
2018-Jul-08 22:59N 40°38' W 074°04'0 0.0
2018-Jul-08 22:23N 40°38' W 074°04'0 0.0
2018-Jul-08 21:53N 40°38' W 074°04'0 0.0
2018-Jul-08 20:44N 40°38' W 074°04'0 0.0
2018-Jul-08 20:20N 40°38' W 074°04'0 0.0
2018-Jul-08 19:56N 40°38' W 074°04'0 0.0
2018-Jul-08 19:29N 40°38' W 074°04'0 0.0
2018-Jul-08 18:56N 40°38' W 074°04'0 0.0
2018-Jul-08 17:50N 40°38' W 074°04'0 0.1
2018-Jul-08 17:29N 40°38' W 074°04'0 0.0
2018-Jul-08 10:05N 40°38' W 074°04'0 0.1
2018-Jul-08 09:53N 40°38' W 074°04'0 0.0
2018-Jul-08 09:26N 40°38' W 074°04'0 0.0
2018-Jul-08 08:59N 40°38' W 074°04'0 0.0
2018-Jul-08 08:29N 40°38' W 074°04'0 0.0
2018-Jul-08 07:59N 40°38' W 074°04'0 0.0
2018-Jul-08 07:29N 40°38' W 074°04'0 0.0
2018-Jul-08 06:59N 40°38' W 074°04'0 0.1
2018-Jul-08 06:26N 40°38' W 074°04'0 0.3
2018-Jul-08 05:59N 40°38' W 074°04'0 0.2
2018-Jul-08 05:29N 40°38' W 074°04'1 1.5
2018-Jul-08 05:00N 40°37' W 074°03'5 9.3
2018-Jul-08 04:30N 40°33' W 074°02'4 8.1
2018-Jul-08 03:59N 40°29' W 074°04'8 9.7
2018-Jul-08 03:10N 40°29' W 074°14'1 9.4
2018-Jul-08 03:00N 40°30' W 074°16'  
2018-Jul-05 16:36N 40°36' W 074°12'0 3.9
2018-Jul-05 16:29N 40°37' W 074°12'2 4.5
2018-Jul-05 15:58N 40°39' W 074°11'3 6.2
2018-Jul-05 15:30N 40°39' W 074°07'3 5.9
2018-Jul-05 15:00N 40°38' W 074°03'8 7.7
2018-Jul-05 14:00N 40°31' W 073°59'510.0
2018-Jul-05 13:30N 40°29' W 073°54'4 8.0
2018-Jul-05 12:59N 40°27' W 073°48'4 7.2
2018-Jul-05 12:28N 40°28' W 073°44'3 6.4
2018-Jul-05 11:57N 40°29' W 073°39'2 4.8
2018-Jul-05 11:28N 40°29' W 073°36'0 0.1
2018-Jul-05 10:35N 40°29' W 073°36'0 0.0
2018-Jul-05 09:26N 40°29' W 073°36'0 0.0
2018-Jul-05 08:56N 40°29' W 073°36'0 0.0
2018-Jul-05 08:14N 40°29' W 073°36'0 0.0
2018-Jul-05 07:59N 40°29' W 073°36'0 0.0
2018-Jul-05 07:26N 40°29' W 073°36'0 0.0
2018-Jul-05 06:56N 40°29' W 073°36'0 0.0
2018-Jul-05 06:17N 40°29' W 073°36'0 0.1
2018-Jul-05 05:59N 40°29' W 073°36'0 0.1
2018-Jul-05 05:29N 40°29' W 073°36'0 0.1
2018-Jul-05 04:56N 40°29' W 073°36'0 0.0
2018-Jul-05 04:26N 40°29' W 073°36'0 0.0
2018-Jul-05 03:56N 40°29' W 073°36'0 0.0
2018-Jul-05 03:29N 40°29' W 073°36'0 0.0
2018-Jul-05 02:41N 40°29' W 073°36'0 0.0
2018-Jul-05 00:44N 40°29' W 073°36'0 0.1
2018-Jul-05 00:08N 40°29' W 073°36'0 0.0
2018-Jul-04 23:53N 40°29' W 073°36'0 0.0
2018-Jul-04 22:41N 40°29' W 073°36'0 0.0
2018-Jul-04 14:14N 40°29' W 073°36'0 0.0
2018-Jul-04 13:59N 40°29' W 073°36'1 2.1
2018-Jul-04 13:30N 40°28' W 073°37'3 6.4
2018-Jul-04 13:00N 40°26' W 073°40'3 6.7
2018-Jul-04 12:30N 40°22' W 073°40'714.0
2018-Jul-04 12:00N 40°18' W 073°33'714.2
2018-Jul-04 11:31N 40°14' W 073°26'714.1
2018-Jul-04 11:00N 40°09' W 073°18'612.9
2018-Jul-04 10:30N 40°05' W 073°12'5 9.8
2018-Jul-04 10:00N 40°01' W 073°09'1 1.1
2018-Jul-04 09:30N 40°01' W 073°08'611.4
2018-Jul-04 09:00N 39°56' W 073°05'713.9
2018-Jul-04 08:31N 39°49' W 073°01'714.0
2018-Jul-04 08:00N 39°43' W 072°56'714.0
2018-Jul-04 07:30N 39°38' W 072°51'713.8
2018-Jul-04 07:00N 39°32' W 072°46'713.8
2018-Jul-04 06:30N 39°26' W 072°41'713.9
2018-Jul-04 06:00N 39°21' W 072°36'714.1
2018-Jul-04 05:30N 39°14' W 072°31'714.1
2018-Jul-04 05:00N 39°08' W 072°26'814.3
2018-Jul-04 04:26N 39°01' W 072°23'714.2
2018-Jul-04 03:55N 38°55' W 072°18'614.3
2018-Jul-04 03:30N 38°49' W 072°14'714.3
2018-Jul-04 03:00N 38°43' W 072°09'  
Track history (hours):
 
Tides and Currents Weather Stations Pressure Air Temp Water Temp Dewpoint Dewpoint Depression Visibility Wind Speed Wind Dir Waves Ship Positions

Navig8 Victoria

Last reported at 2018-Jul-13 08:19 UTC. Time now 2018-Aug-15 03:01 UTC.
Position N 25°32' W 079°34'.
Warning: this ship's position is 32 days out of date.

Length 183 m; draft 8.7 m.

Type: Ship. MMSI: 538005992.

Date/timePositionNaut miles runAvg speedWind from/ knotsBaromVisibWave heightAir tempDewpointWater temp
2018-Jul-13 08:19N 25°32' W 079°34'411.5
2018-Jul-13 08:00N 25°36' W 079°33'611.5
2018-Jul-13 07:30N 25°42' W 079°32'611.7
2018-Jul-13 07:00N 25°47' W 079°31'611.8
2018-Jul-13 06:29N 25°53' W 079°30'611.7
2018-Jul-13 06:00N 25°59' W 079°30'611.9
2018-Jul-13 05:30N 26°05' W 079°29'612.0
2018-Jul-13 05:00N 26°11' W 079°27'611.9
2018-Jul-13 04:30N 26°16' W 079°25'611.7
2018-Jul-13 04:00N 26°22' W 079°24'  
2018-Jul-09 10:51N 39°03' W 072°31'614.2
2018-Jul-09 10:27N 39°08' W 072°34'2914.2
2018-Jul-09 08:25N 39°33' W 072°54'813.9
2018-Jul-09 07:50N 39°40' W 072°60'413.7
2018-Jul-09 07:30N 39°43' W 073°03'713.7
2018-Jul-09 06:59N 39°49' W 073°08'713.7
2018-Jul-09 06:30N 39°55' W 073°13'913.5
2018-Jul-09 05:51N 40°02' W 073°20'513.4
2018-Jul-09 05:27N 40°06' W 073°25'613.3
2018-Jul-09 05:00N 40°10' W 073°30'713.2
2018-Jul-09 04:30N 40°15' W 073°35'713.3
2018-Jul-09 04:00N 40°20' W 073°41'612.4
2018-Jul-09 03:30N 40°25' W 073°47'510.7
2018-Jul-09 03:00N 40°28' W 073°52'613.0
2018-Jul-09 02:30N 40°31' W 073°60'612.3
2018-Jul-09 02:00N 40°37' W 074°03'1 2.6
2018-Jul-09 01:29N 40°38' W 074°04'0 0.0
2018-Jul-09 00:59N 40°38' W 074°04'0 0.1
2018-Jul-09 00:29N 40°38' W 074°04'0 0.2
2018-Jul-08 23:59N 40°38' W 074°04'0 0.2
2018-Jul-08 23:29N 40°38' W 074°04'0 0.1
2018-Jul-08 22:59N 40°38' W 074°04'0 0.0
2018-Jul-08 22:23N 40°38' W 074°04'0 0.0
2018-Jul-08 21:53N 40°38' W 074°04'0 0.0
2018-Jul-08 20:44N 40°38' W 074°04'0 0.0
2018-Jul-08 20:20N 40°38' W 074°04'0 0.0
2018-Jul-08 19:56N 40°38' W 074°04'0 0.0
2018-Jul-08 19:29N 40°38' W 074°04'0 0.0
2018-Jul-08 18:56N 40°38' W 074°04'0 0.0
2018-Jul-08 17:50N 40°38' W 074°04'0 0.1
2018-Jul-08 17:29N 40°38' W 074°04'0 0.0
2018-Jul-08 10:05N 40°38' W 074°04'0 0.1
2018-Jul-08 09:53N 40°38' W 074°04'0 0.0
2018-Jul-08 09:26N 40°38' W 074°04'0 0.0
2018-Jul-08 08:59N 40°38' W 074°04'0 0.0
2018-Jul-08 08:29N 40°38' W 074°04'0 0.0
2018-Jul-08 07:59N 40°38' W 074°04'0 0.0
2018-Jul-08 07:29N 40°38' W 074°04'0 0.0
2018-Jul-08 06:59N 40°38' W 074°04'0 0.1
2018-Jul-08 06:26N 40°38' W 074°04'0 0.3
2018-Jul-08 05:59N 40°38' W 074°04'0 0.2
2018-Jul-08 05:29N 40°38' W 074°04'1 1.5
2018-Jul-08 05:00N 40°37' W 074°03'5 9.3
2018-Jul-08 04:30N 40°33' W 074°02'4 8.1
2018-Jul-08 03:59N 40°29' W 074°04'8 9.7
2018-Jul-08 03:10N 40°29' W 074°14'1 9.4
2018-Jul-08 03:00N 40°30' W 074°16'  
2018-Jul-05 16:36N 40°36' W 074°12'0 3.9
2018-Jul-05 16:29N 40°37' W 074°12'2 4.5
2018-Jul-05 15:58N 40°39' W 074°11'3 6.2
2018-Jul-05 15:30N 40°39' W 074°07'3 5.9
2018-Jul-05 15:00N 40°38' W 074°03'8 7.7
2018-Jul-05 14:00N 40°31' W 073°59'510.0
2018-Jul-05 13:30N 40°29' W 073°54'4 8.0
2018-Jul-05 12:59N 40°27' W 073°48'4 7.2
2018-Jul-05 12:28N 40°28' W 073°44'3 6.4
2018-Jul-05 11:57N 40°29' W 073°39'2 4.8
2018-Jul-05 11:28N 40°29' W 073°36'0 0.1
2018-Jul-05 10:35N 40°29' W 073°36'0 0.0
2018-Jul-05 09:26N 40°29' W 073°36'0 0.0
2018-Jul-05 08:56N 40°29' W 073°36'0 0.0
2018-Jul-05 08:14N 40°29' W 073°36'0 0.0
2018-Jul-05 07:59N 40°29' W 073°36'0 0.0
2018-Jul-05 07:26N 40°29' W 073°36'0 0.0
2018-Jul-05 06:56N 40°29' W 073°36'0 0.0
2018-Jul-05 06:17N 40°29' W 073°36'0 0.1
2018-Jul-05 05:59N 40°29' W 073°36'0 0.1
2018-Jul-05 05:29N 40°29' W 073°36'0 0.1
2018-Jul-05 04:56N 40°29' W 073°36'0 0.0
2018-Jul-05 04:26N 40°29' W 073°36'0 0.0
2018-Jul-05 03:56N 40°29' W 073°36'0 0.0
2018-Jul-05 03:29N 40°29' W 073°36'0 0.0
2018-Jul-05 02:41N 40°29' W 073°36'0 0.0
2018-Jul-05 00:44N 40°29' W 073°36'0 0.1
2018-Jul-05 00:08N 40°29' W 073°36'0 0.0
2018-Jul-04 23:53N 40°29' W 073°36'0 0.0
2018-Jul-04 22:41N 40°29' W 073°36'0 0.0
2018-Jul-04 14:14N 40°29' W 073°36'0 0.0
2018-Jul-04 13:59N 40°29' W 073°36'1 2.1
2018-Jul-04 13:30N 40°28' W 073°37'3 6.4
2018-Jul-04 13:00N 40°26' W 073°40'3 6.7
2018-Jul-04 12:30N 40°22' W 073°40'714.0
2018-Jul-04 12:00N 40°18' W 073°33'714.2
2018-Jul-04 11:31N 40°14' W 073°26'714.1
2018-Jul-04 11:00N 40°09' W 073°18'612.9
2018-Jul-04 10:30N 40°05' W 073°12'5 9.8
2018-Jul-04 10:00N 40°01' W 073°09'1 1.1
2018-Jul-04 09:30N 40°01' W 073°08'611.4
2018-Jul-04 09:00N 39°56' W 073°05'713.9
2018-Jul-04 08:31N 39°49' W 073°01'714.0
2018-Jul-04 08:00N 39°43' W 072°56'714.0
2018-Jul-04 07:30N 39°38' W 072°51'713.8
2018-Jul-04 07:00N 39°32' W 072°46'713.8
2018-Jul-04 06:30N 39°26' W 072°41'713.9
2018-Jul-04 06:00N 39°21' W 072°36'714.1
2018-Jul-04 05:30N 39°14' W 072°31'714.1
2018-Jul-04 05:00N 39°08' W 072°26'814.3
2018-Jul-04 04:26N 39°01' W 072°23'714.2
2018-Jul-04 03:55N 38°55' W 072°18'614.3
2018-Jul-04 03:30N 38°49' W 072°14'714.3
2018-Jul-04 03:00N 38°43' W 072°09'  

Dump ship's entire track history